Latest Weather Observations for Low Isles

IDQ60801

Issued at 4:32 pm EST Tuesday 31 March 2015 (issued every 30 minutes, with the page automatically refreshed every 10 minutes)

About weather observations | Map of weather stations | Latest weather observations for QLD | Other Formats
Station Details ID: 031037 Name: LOW ISLES LIGHTHOUSE Lat: -16.38 Lon: 145.56 Height: 2.9 m
Data from the previous 72 hours. | See also: Recent months at Low Isles
Date/Time
EST
Temp
°C
App
Temp
°C
Dew
Point
Rel
Hum
%
Delta-T
°C
Wind Press
QNH
hPa
Press
MSL
hPa
Rain
since 9 am
mm
Dir
 
Spd
km/h
Gust
km/h
Spd
kts
Gust
kts
31/04:30pm 28.9 26.7 22.2 67 4.5 SE 37 46 20 25 1012.1 - 0.2
31/04:00pm 29.5 27.6 22.7 67 4.6 SE 37 46 20 25 1012.0 - 0.2
31/03:30pm 30.0 28.1 23.4 67 4.5 SE 39 46 21 25 1012.2 - 0.2
31/03:00pm 30.0 28.7 23.2 67 4.7 SE 35 44 19 24 1012.3 1012.2 0.2
31/02:30pm 30.6 29.8 23.3 65 5.0 ESE 33 43 18 23 1012.7 - 0.2
31/02:00pm 30.6 29.2 23.0 64 5.2 ESE 35 44 19 24 1013.1 - 0.2
31/01:30pm 30.8 29.7 22.9 62 5.4 SE 33 43 18 23 1013.2 - 0.2
31/01:00pm 30.2 29.1 23.4 67 4.7 SE 35 44 19 24 1013.8 - 0.2
31/12:30pm 29.0 27.4 23.9 74 3.5 SE 39 44 21 24 1014.1 - 0.2
31/12:00pm 29.9 28.6 23.1 67 4.7 SE 35 41 19 22 1014.5 1014.4 0.2
31/11:30am 30.4 29.9 23.8 68 4.6 ESE 33 39 18 21 1014.9 - 0.2
31/11:00am 29.3 29.9 24.2 74 3.5 SE 28 44 15 24 1015.3 - 0.2
31/10:30am 30.4 30.6 24.1 69 4.4 ESE 30 39 16 21 1015.6 - 0.2
31/10:00am 29.4 29.4 23.1 69 4.3 ESE 28 35 15 19 1015.5 - 0.0
31/09:30am 29.1 29.5 23.8 73 3.7 ESE 28 35 15 19 1015.5 - 0.0
31/09:00am 28.4 28.5 24.6 80 2.6 ESE 32 37 17 20 1015.4 1015.3 1.2
31/08:30am 27.4 28.2 24.5 84 2.0 ESE 28 33 15 18 1015.2 - 1.2
31/08:00am 26.5 25.7 23.4 83 2.1 ESE 33 50 18 27 1015.0 - 1.2
31/07:30am 27.0 27.0 23.7 82 2.3 ESE 30 35 16 19 1014.6 - 0.8
31/07:00am 27.5 28.0 23.9 81 2.5 ESE 28 37 15 20 1014.3 - 0.6
31/06:30am 27.2 26.5 23.2 79 2.7 ESE 32 41 17 22 1013.8 - 0.6
31/06:00am 27.2 26.1 22.8 77 3.0 ESE 33 41 18 22 1013.5 1013.4 0.6
31/05:30am 27.2 26.3 23.2 79 2.7 ESE 33 43 18 23 1013.4 - 0.6
31/05:00am 27.1 27.6 24.0 83 2.1 ESE 28 35 15 19 1013.1 - 0.6
31/04:30am 26.8 26.8 23.7 83 2.1 ESE 30 39 16 21 1013.0 - 0.6
31/04:00am 26.7 25.7 23.6 83 2.1 ESE 35 44 19 24 1013.0 - 0.6
31/03:30am 26.5 26.3 24.0 86 1.7 ESE 32 41 17 22 1013.0 - 0.6
31/03:00am 25.9 25.1 23.4 86 1.7 ESE 33 48 18 26 1013.2 1013.1 0.6
31/02:53am 26.5 27.0 24.0 86 1.7 ESE 28 48 15 26 1013.2 - 0.6
31/02:30am 27.3 27.2 23.5 80 2.6 SE 30 35 16 19 1013.5 - 0.2
31/02:00am 27.2 26.6 23.4 80 2.6 ESE 32 39 17 21 1013.8 - 0.2
31/01:30am 27.3 26.4 23.1 78 2.9 ESE 33 41 18 22 1014.2 - 0.2
31/01:00am 27.4 27.2 23.4 79 2.7 SE 30 39 16 21 1014.6 - 0.2
31/12:30am 27.4 26.7 23.2 78 2.9 ESE 32 41 17 22 1015.1 - 0.2
31/12:00am 27.5 26.9 23.3 78 2.9 ESE 32 39 17 21 1015.3 1015.2 0.2
 
Date/Time
EST
Temp
°C
App
Temp
°C
Dew
Point
Rel
Hum
%
Delta-T
°C
Wind Press
QNH
hPa
Press
MSL
hPa
Rain
since 9 am
mm
Dir
 
Spd
km/h
Gust
km/h
Spd
kts
Gust
kts
30/11:30pm 27.5 26.6 23.1 77 3.0 ESE 33 43 18 23 1015.4 - 0.2
30/11:00pm 27.8 27.7 24.2 81 2.5 SSE 32 41 17 22 1015.7 - 0.2
30/10:30pm 27.6 26.7 23.2 77 3.0 ESE 33 41 18 22 1015.7 - 0.2
30/10:00pm 27.9 26.9 23.7 78 2.9 SE 35 44 19 24 1015.8 - 0.2
30/09:52pm 27.6 26.6 23.6 79 2.7 SE 35 39 19 21 1015.8 - 0.2
30/09:44pm 27.4 24.5 23.0 77 3.0 SSE 43 46 23 25 1015.8 - 0.2
30/09:30pm 27.7 26.8 23.9 80 2.6 SE 35 43 19 23 1015.8 - 0.2
30/09:04pm 27.1 26.3 23.1 79 2.7 SE 32 50 17 27 1015.8 - 0.2
30/09:00pm 27.3 25.9 22.9 77 3.0 SE 35 50 19 27 1015.8 1015.7 0.2
30/08:30pm 27.9 27.5 23.7 78 2.9 SE 32 41 17 22 1015.6 - 0.2
30/08:00pm 27.9 27.1 23.3 76 3.1 SE 33 41 18 22 1015.2 - 0.2
30/07:30pm 27.9 27.4 23.5 77 3.0 SE 32 39 17 21 1015.0 - 0.2
30/07:00pm 28.1 28.3 24.1 79 2.8 SE 30 39 16 21 1014.6 - 0.2
30/06:30pm 27.9 27.6 23.9 79 2.8 SE 32 39 17 21 1014.4 - 0.2
30/06:00pm 28.2 28.0 24.0 78 2.9 SE 32 39 17 21 1014.5 1014.4 0.2
30/05:30pm 28.4 28.1 23.3 74 3.5 SE 30 35 16 19 1014.3 - 0.2
30/05:00pm 28.7 27.8 22.9 71 4.0 ESE 32 37 17 20 1014.1 - 0.2
30/04:30pm 29.0 28.2 23.0 70 4.1 SE 32 39 17 21 1014.0 - 0.2
30/04:00pm 29.5 29.3 23.4 69 4.2 SE 30 35 16 19 1013.9 - 0.2
30/03:30pm 29.8 29.4 23.0 67 4.7 SE 30 37 16 20 1013.8 - 0.2
30/03:00pm 29.7 29.1 23.4 69 4.3 SE 32 41 17 22 1013.9 1013.8 0.2
30/02:30pm 30.3 29.6 23.2 65 4.9 SE 32 37 17 20 1014.1 - 0.2
30/02:00pm 30.6 30.3 23.8 67 4.7 SE 32 39 17 21 1014.3 - 0.2
30/01:30pm 30.2 29.1 22.9 65 5.0 SE 33 43 18 23 1014.7 - 0.2
30/01:00pm 30.0 27.9 22.4 63 5.2 SE 37 43 20 23 1015.0 - 0.2
30/12:30pm 29.9 27.9 22.6 65 5.0 SE 37 44 20 24 1015.4 - 0.2
30/12:00pm 30.3 28.6 22.5 63 5.3 ESE 35 41 19 22 1015.8 1015.7 0.2
30/11:30am 29.9 28.1 22.3 63 5.2 ESE 35 46 19 25 1016.0 - 0.2
30/11:00am 29.5 27.4 21.7 63 5.2 SE 35 43 19 23 1016.4 - 0.2
30/10:30am 29.3 27.4 22.0 64 4.9 ESE 35 44 19 24 1016.6 - 0.2
30/10:00am 28.3 26.5 22.3 70 4.1 SE 35 44 19 24 1016.6 - 0.0
30/09:55am 28.0 25.7 22.7 73 3.6 ESE 39 44 21 24 1016.6 - 0.0
30/09:30am 26.6 24.0 22.9 80 2.5 SSE 41 48 22 26 1016.7 - 0.0
30/09:00am 27.6 26.7 22.8 75 3.3 SSE 32 35 17 19 1016.6 1016.5 11.2
30/08:30am 27.6 27.8 22.8 75 3.3 SSE 26 33 14 18 1016.4 - 11.2
30/08:00am 27.4 27.1 22.6 75 3.2 ESE 28 35 15 19 1015.9 - 11.2
30/07:30am 27.0 24.8 21.5 72 3.7 ESE 35 43 19 23 1015.6 - 11.2
30/07:00am 27.0 25.3 21.7 73 3.5 SE 33 44 18 24 1015.4 - 11.2
30/06:30am 27.1 24.9 22.1 74 3.4 SE 37 43 20 23 1015.2 - 11.2
30/06:00am 27.2 24.8 22.6 76 3.1 SE 39 52 21 28 1014.8 1014.7 11.2
30/05:57am 27.0 25.0 22.6 77 3.0 SE 37 52 20 28 1014.7 - 11.2
30/05:30am 27.0 26.1 22.8 78 2.8 SSE 32 35 17 19 1014.4 - 11.2
30/05:00am 27.1 25.6 22.7 77 3.0 SSE 35 43 19 23 1014.1 - 11.2
30/04:48am 27.2 25.7 22.8 77 3.0 S 35 39 19 21 1014.0 - 11.2
30/04:30am 27.4 24.8 22.1 73 3.6 SE 39 46 21 25 1013.8 - 11.2
30/04:00am 27.2 24.4 22.4 75 3.2 SE 41 46 22 25 1013.6 - 11.2
30/03:30am 26.9 24.6 22.7 78 2.8 SE 39 48 21 26 1013.4 - 11.2
30/03:00am 26.7 25.4 23.2 81 2.4 SE 35 44 19 24 1013.5 1013.4 11.2
30/02:30am 26.7 24.8 23.4 82 2.3 SE 39 46 21 25 1013.8 - 11.2
30/02:00am 26.3 26.0 23.8 86 1.7 ESE 32 41 17 22 1014.2 - 11.0
30/01:30am 26.0 25.5 23.9 88 1.4 ESE 33 41 18 22 1014.7 - 11.0
30/01:00am 25.6 24.6 23.6 89 1.4 ESE 35 43 19 23 1015.1 - 11.0
30/12:30am 25.1 23.6 23.5 91 1.1 E 37 48 20 26 1015.3 - 11.0
30/12:00am 24.9 22.8 23.7 93 0.8 E 41 57 22 31 1015.8 1015.7 11.0
 
Date/Time
EST
Temp
°C
App
Temp
°C
Dew
Point
Rel
Hum
%
Delta-T
°C
Wind Press
QNH
hPa
Press
MSL
hPa
Rain
since 9 am
mm
Dir
 
Spd
km/h
Gust
km/h
Spd
kts
Gust
kts
29/11:39pm 24.9 24.9 23.7 93 0.8 ESE 30 48 16 26 1016.0 - 10.4
29/11:35pm 24.9 24.4 23.5 92 1.0 ESE 32 39 17 21 1016.1 - 10.4
29/11:30pm 24.9 21.6 23.3 91 1.1 SE 46 57 25 31 1016.1 - 9.4
29/11:19pm 25.7 24.3 24.3 92 1.0 SE 39 57 21 31 1016.0 - 8.4
29/11:07pm 25.5 25.6 24.5 94 0.7 SE 32 35 17 19 1016.1 - 8.4
29/11:00pm 25.2 22.9 24.0 93 0.8 S 43 50 23 27 1015.9 - 8.4
29/10:58pm 25.2 22.2 23.8 92 1.0 S 46 50 25 27 1016.0 - 8.4
29/10:30pm 25.4 24.1 24.4 94 0.7 SE 39 44 21 24 1016.1 - 7.4
29/10:00pm 25.2 23.3 24.0 93 0.8 ESE 41 54 22 29 1016.3 - 6.8
29/09:31pm 25.5 25.4 24.3 93 0.8 ESE 32 50 17 27 1016.1 - 5.4
29/09:30pm 25.3 25.5 24.1 93 0.8 ESE 30 44 16 24 1016.0 - 5.2
29/09:00pm 25.8 24.5 23.8 89 1.4 E 37 52 20 28 1015.9 1015.8 1.6
29/08:53pm 26.2 25.6 23.7 86 1.7 E 33 41 18 22 1015.7 - 0.4
29/08:37pm 27.4 25.5 23.4 79 2.7 ESE 39 59 21 32 1015.5 - 0.0
29/08:30pm 27.9 27.0 23.9 79 2.8 ESE 35 46 19 25 1015.6 - 0.0
29/08:00pm 28.1 25.3 23.5 76 3.2 SSE 44 52 24 28 1015.3 - 0.0
29/07:30pm 27.9 25.0 23.3 76 3.1 SE 44 50 24 27 1015.0 - 0.0
29/07:00pm 27.9 25.6 23.3 76 3.1 SE 41 46 22 25 1014.9 - 0.0
29/06:30pm 28.0 26.4 24.0 79 2.8 SE 39 46 21 25 1014.6 - 0.0
29/06:00pm 28.2 26.6 23.3 75 3.4 SE 37 44 20 24 1014.0 1013.9 0.0
29/05:30pm 28.4 27.1 23.1 73 3.6 SE 35 39 19 21 1013.9 - 0.0
29/05:00pm 28.5 27.7 23.0 72 3.8 SE 32 39 17 21 1013.7 - 0.0
29/04:30pm 28.8 27.4 22.3 68 4.4 SE 33 39 18 21 1013.7 - 0.0
29/04:00pm 29.3 28.3 23.0 69 4.3 SE 33 41 18 22 1013.6 - 0.0
29/03:30pm 29.7 28.6 22.9 67 4.6 ESE 33 39 18 21 1013.6 - 0.0
29/03:00pm 29.5 27.8 22.5 66 4.8 SE 35 41 19 22 1013.6 1013.5 0.0
29/02:30pm 29.5 28.0 22.7 67 4.6 SE 35 43 19 23 1013.8 - 0.0
29/02:00pm 29.4 26.8 21.4 62 5.4 SE 37 46 20 25 1013.9 - 0.0
29/01:30pm 29.3 26.1 21.8 64 5.0 SE 41 48 22 26 1014.4 - 0.0
29/01:00pm 29.4 26.7 21.9 64 5.1 SE 39 46 21 25 1014.6 - 0.0
29/12:30pm 29.3 25.9 22.0 64 4.9 SE 43 50 23 27 1015.1 - 0.0
29/12:00pm 28.3 25.5 22.5 71 3.9 SE 41 48 22 26 1015.5 1015.4 0.0
29/11:30am 28.4 25.3 21.9 68 4.4 SE 41 48 22 26 1015.9 - 0.0
29/11:00am 28.1 24.8 21.6 68 4.3 SE 41 48 22 26 1016.2 - 0.0
29/10:30am 27.5 24.7 21.8 71 3.8 SE 39 48 21 26 1016.4 - 0.0
29/10:00am 27.1 24.3 21.8 73 3.5 SE 39 50 21 27 1016.4 - 0.0
29/09:30am 26.5 25.2 22.1 77 3.0 ESE 32 46 17 25 1016.2 - -
29/09:11am 25.6 23.6 21.9 80 2.5 ESE 35 54 19 29 1016.1 - -
29/09:00am 25.9 23.7 22.2 80 2.5 SE 37 48 20 26 1016.1 1016.0 16.4
29/08:46am 25.2 24.6 21.9 82 2.2 SE 28 33 15 18 1016.0 - 16.4
29/08:40am 25.8 23.8 22.5 82 2.2 E 37 44 20 24 1016.0 - 16.2
29/08:38am 26.1 24.2 22.0 78 2.7 ESE 35 54 19 29 1015.9 - 16.2
29/08:30am 26.2 25.0 21.6 76 3.1 ESE 30 41 16 22 1015.6 - 16.2
29/08:00am 26.3 25.8 23.6 85 1.8 ESE 32 43 17 23 1015.3 - 16.2
29/07:44am 26.0 25.4 23.3 85 1.8 E 32 33 17 18 1015.1 - 16.2
29/07:33am 25.9 23.5 21.8 78 2.7 ESE 37 56 20 30 1015.0 - 16.2
29/07:30am 25.8 22.9 21.5 77 2.9 ESE 39 56 21 30 1015.0 - 16.2
29/07:08am 26.3 24.4 22.8 81 2.4 ESE 37 56 20 30 1014.6 - 16.2
29/07:00am 26.1 24.2 22.8 82 2.2 ESE 37 46 20 25 1014.4 - 16.2
29/06:30am 25.3 25.8 23.9 92 1.0 SE 28 44 15 24 1014.1 - 16.2

Other Formats:

Comma delimited format used in spreadsheet applications
http://www.bom.gov.au/fwo/IDQ60801/IDQ60801.94285.axf

JavaScript Object Notation format (JSON) in row-major order
http://www.bom.gov.au/fwo/IDQ60801/IDQ60801.94285.json